F/V Renaissance II — FMEW — position and weather

sailwx.info

Track history (hours):
 
Tides and Currents Weather Stations Pressure Air Temp Water Temp Dewpoint Dewpoint Depression Visibility Wind Speed Wind Dir Waves Ship Positions

F/V Renaissance II

Last reported at 2015-Mar-30 01:34 UTC. Time now 2015-Mar-30 02:27 UTC.
Position N 46°30' W 001°47'.

Length 18 m.

Type: Fishing. MMSI: 228216600.

Date/timePositionNaut miles runAvg speedWind from/ knotsBaromVisibWave heightAir tempDewpointWater temp
2015-Mar-30 01:34N 46°30' W 001°47'0 0.0
2015-Mar-30 00:33N 46°30' W 001°47'0 0.0
2015-Mar-29 23:33N 46°30' W 001°47'0 0.1
2015-Mar-29 22:34N 46°30' W 001°47'0 0.1
2015-Mar-29 21:33N 46°30' W 001°47'0 0.0
2015-Mar-29 20:33N 46°30' W 001°47'0 0.0
2015-Mar-29 19:34N 46°30' W 001°47'0 0.0
2015-Mar-29 18:34N 46°30' W 001°47'0 0.0
2015-Mar-29 17:33N 46°30' W 001°47'0 0.0
2015-Mar-29 16:33N 46°30' W 001°47'0 0.0
2015-Mar-29 15:33N 46°30' W 001°47'0 0.0
2015-Mar-29 14:33N 46°30' W 001°47'0 0.0
2015-Mar-29 13:34N 46°30' W 001°47'0 0.0
2015-Mar-29 12:34N 46°30' W 001°47'0 0.0
2015-Mar-29 11:33N 46°30' W 001°47'0 0.0
2015-Mar-29 10:34N 46°30' W 001°47'0 0.0
2015-Mar-29 09:34N 46°30' W 001°47'0 0.0
2015-Mar-29 08:33N 46°30' W 001°47'0 0.0
2015-Mar-29 07:33N 46°30' W 001°47'0 0.0
2015-Mar-29 06:34N 46°30' W 001°47'0 0.0
2015-Mar-29 05:34N 46°30' W 001°47'0 0.0
2015-Mar-29 04:33N 46°30' W 001°47'0 0.0
2015-Mar-29 03:33N 46°30' W 001°47'0 0.0
2015-Mar-29 02:34N 46°30' W 001°47'0 0.0
2015-Mar-29 01:33N 46°30' W 001°47'0 0.0
2015-Mar-29 00:33N 46°30' W 001°47'0 0.0
2015-Mar-28 23:33N 46°30' W 001°47'0 0.0
2015-Mar-28 22:33N 46°30' W 001°47'0 0.0
2015-Mar-28 21:33N 46°30' W 001°47'0 0.0
2015-Mar-28 20:33N 46°30' W 001°47'0 0.0
2015-Mar-28 19:33N 46°30' W 001°47'0 0.0
2015-Mar-28 18:33N 46°30' W 001°47'0 0.0
2015-Mar-28 17:33N 46°30' W 001°47'0 0.0
2015-Mar-28 16:33N 46°30' W 001°47'0 0.2
2015-Mar-28 15:33N 46°30' W 001°48'8 7.8
2015-Mar-28 14:33N 46°27' W 001°58'19 1.9
2015-Mar-28 04:33N 46°08' W 001°49'0 0.4
2015-Mar-28 03:32N 46°08' W 001°50'0 0.4
2015-Mar-28 02:20N 46°08' W 001°51'2 1.1
2015-Mar-28 00:33N 46°09' W 001°48'1 0.5
2015-Mar-27 23:18N 46°09' W 001°49'21 0.9
2015-Mar-27 00:29N 46°30' W 001°47'0 0.0
2015-Mar-26 23:33N 46°30' W 001°47'0 0.0
2015-Mar-26 22:33N 46°30' W 001°47'0 0.0
2015-Mar-26 21:33N 46°30' W 001°47'0 0.0
2015-Mar-26 20:33N 46°30' W 001°47'0 0.0
2015-Mar-26 19:33N 46°30' W 001°47'0 0.0
2015-Mar-26 18:33N 46°30' W 001°47'6 5.8
2015-Mar-26 17:33N 46°27' W 001°54'8 8.4
2015-Mar-26 16:33N 46°24' W 002°06'18 0.4
2015-Mar-24 23:33N 46°09' W 001°52'9 8.9
2015-Mar-24 22:33N 46°18' W 001°50'9 9.0
2015-Mar-24 21:33N 46°26' W 001°48'3 3.5
2015-Mar-24 20:33N 46°30' W 001°48'4 4.2
2015-Mar-24 19:33N 46°26' W 001°47'8 8.3
2015-Mar-24 18:33N 46°17' W 001°46'7 3.0
2015-Mar-24 16:09N 46°10' W 001°46'6 9.2
2015-Mar-24 15:31N 46°13' W 001°54'2 1.9
2015-Mar-24 14:33N 46°13' W 001°56'1 0.6
2015-Mar-24 13:23N 46°13' W 001°55'15 2.1
2015-Mar-24 06:25N 46°16' W 002°16'7 8.1
2015-Mar-24 05:33N 46°21' W 002°08'8 8.3
2015-Mar-24 04:33N 46°25' W 001°58'8 8.3
2015-Mar-24 03:34N 46°29' W 001°47'1 1.3
2015-Mar-24 02:33N 46°30' W 001°47'0 0.0
2015-Mar-24 01:33N 46°30' W 001°47'0 0.0
2015-Mar-24 00:33N 46°30' W 001°47'0 0.0
2015-Mar-23 23:33N 46°30' W 001°47'0 0.0
2015-Mar-23 22:33N 46°30' W 001°47'0 0.0
2015-Mar-23 21:33N 46°30' W 001°47'0 0.0
2015-Mar-23 20:33N 46°30' W 001°47'0 0.0
2015-Mar-23 19:33N 46°30' W 001°47'0 0.0
2015-Mar-23 18:33N 46°30' W 001°47'0 0.0
2015-Mar-23 17:33N 46°30' W 001°47'0 0.0
2015-Mar-23 16:33N 46°30' W 001°47'0 0.0
2015-Mar-23 15:33N 46°30' W 001°47'0 0.0
2015-Mar-23 14:33N 46°30' W 001°47'0 0.0
2015-Mar-23 13:33N 46°30' W 001°47'0 0.0
2015-Mar-23 12:33N 46°30' W 001°47'0 0.0
2015-Mar-23 11:33N 46°30' W 001°47'0 0.0
2015-Mar-23 10:33N 46°30' W 001°47'0 0.0
2015-Mar-23 09:33N 46°30' W 001°47'0 0.1
2015-Mar-23 08:33N 46°30' W 001°47'0 0.2
2015-Mar-23 07:33N 46°30' W 001°47'0 0.0
2015-Mar-23 06:33N 46°30' W 001°47'0 0.0
2015-Mar-23 05:33N 46°30' W 001°47'0 0.0
2015-Mar-23 04:33N 46°30' W 001°47'0 0.0
2015-Mar-23 03:33N 46°30' W 001°47'0 0.0
2015-Mar-23 02:33N 46°30' W 001°47'0 0.0
2015-Mar-23 01:33N 46°30' W 001°47'0 0.0
2015-Mar-23 00:33N 46°30' W 001°47'0 0.0
2015-Mar-22 23:33N 46°30' W 001°47'0 0.0
2015-Mar-22 22:33N 46°30' W 001°47'0 0.0
2015-Mar-22 21:33N 46°30' W 001°47'0 0.0
2015-Mar-22 20:33N 46°30' W 001°47'0 0.0
2015-Mar-22 19:33N 46°30' W 001°47'7 7.3
2015-Mar-22 18:33N 46°23' W 001°47'9 9.1
2015-Mar-22 17:33N 46°14' W 001°46'9 1.7
2015-Mar-22 12:26N 46°05' W 001°50'2 0.7
2015-Mar-22 10:11N 46°07' W 001°49'2 1.1
2015-Mar-22 08:20N 46°08' W 001°51'1 0.4
2015-Mar-22 06:32N 46°09' W 001°52'0 0.0
2015-Mar-21 22:16N 46°09' W 001°51'5 0.3
2015-Mar-21 03:09N 46°13' W 001°54'5 9.0
2015-Mar-21 02:34N 46°19' W 001°52'9 8.8
2015-Mar-21 01:34N 46°27' W 001°48'3 3.0
2015-Mar-21 00:34N 46°30' W 001°47'0 0.0
2015-Mar-20 23:34N 46°30' W 001°47'0 0.0
2015-Mar-20 22:33N 46°30' W 001°47'0 0.0
2015-Mar-20 21:34N 46°30' W 001°47'0 0.0
2015-Mar-20 20:34N 46°30' W 001°47'0 0.0
2015-Mar-20 19:33N 46°30' W 001°47'5 4.5
2015-Mar-20 18:34N 46°27' W 001°52'9 9.1
2015-Mar-20 17:33N 46°23' W 002°04'2 0.1
2015-Mar-20 02:33N 46°24' W 002°06'  
Track history (hours):
 
Tides and Currents Weather Stations Pressure Air Temp Water Temp Dewpoint Dewpoint Depression Visibility Wind Speed Wind Dir Waves Ship Positions

F/V Renaissance II

Last reported at 2015-Mar-30 01:34 UTC. Time now 2015-Mar-30 02:27 UTC.
Position N 46°30' W 001°47'.

Length 18 m.

Type: Fishing. MMSI: 228216600.

Date/timePositionNaut miles runAvg speedWind from/ knotsBaromVisibWave heightAir tempDewpointWater temp
2015-Mar-30 01:34N 46°30' W 001°47'0 0.0
2015-Mar-30 00:33N 46°30' W 001°47'0 0.0
2015-Mar-29 23:33N 46°30' W 001°47'0 0.1
2015-Mar-29 22:34N 46°30' W 001°47'0 0.1
2015-Mar-29 21:33N 46°30' W 001°47'0 0.0
2015-Mar-29 20:33N 46°30' W 001°47'0 0.0
2015-Mar-29 19:34N 46°30' W 001°47'0 0.0
2015-Mar-29 18:34N 46°30' W 001°47'0 0.0
2015-Mar-29 17:33N 46°30' W 001°47'0 0.0
2015-Mar-29 16:33N 46°30' W 001°47'0 0.0
2015-Mar-29 15:33N 46°30' W 001°47'0 0.0
2015-Mar-29 14:33N 46°30' W 001°47'0 0.0
2015-Mar-29 13:34N 46°30' W 001°47'0 0.0
2015-Mar-29 12:34N 46°30' W 001°47'0 0.0
2015-Mar-29 11:33N 46°30' W 001°47'0 0.0
2015-Mar-29 10:34N 46°30' W 001°47'0 0.0
2015-Mar-29 09:34N 46°30' W 001°47'0 0.0
2015-Mar-29 08:33N 46°30' W 001°47'0 0.0
2015-Mar-29 07:33N 46°30' W 001°47'0 0.0
2015-Mar-29 06:34N 46°30' W 001°47'0 0.0
2015-Mar-29 05:34N 46°30' W 001°47'0 0.0
2015-Mar-29 04:33N 46°30' W 001°47'0 0.0
2015-Mar-29 03:33N 46°30' W 001°47'0 0.0
2015-Mar-29 02:34N 46°30' W 001°47'0 0.0
2015-Mar-29 01:33N 46°30' W 001°47'0 0.0
2015-Mar-29 00:33N 46°30' W 001°47'0 0.0
2015-Mar-28 23:33N 46°30' W 001°47'0 0.0
2015-Mar-28 22:33N 46°30' W 001°47'0 0.0
2015-Mar-28 21:33N 46°30' W 001°47'0 0.0
2015-Mar-28 20:33N 46°30' W 001°47'0 0.0
2015-Mar-28 19:33N 46°30' W 001°47'0 0.0
2015-Mar-28 18:33N 46°30' W 001°47'0 0.0
2015-Mar-28 17:33N 46°30' W 001°47'0 0.0
2015-Mar-28 16:33N 46°30' W 001°47'0 0.2
2015-Mar-28 15:33N 46°30' W 001°48'8 7.8
2015-Mar-28 14:33N 46°27' W 001°58'19 1.9
2015-Mar-28 04:33N 46°08' W 001°49'0 0.4
2015-Mar-28 03:32N 46°08' W 001°50'0 0.4
2015-Mar-28 02:20N 46°08' W 001°51'2 1.1
2015-Mar-28 00:33N 46°09' W 001°48'1 0.5
2015-Mar-27 23:18N 46°09' W 001°49'21 0.9
2015-Mar-27 00:29N 46°30' W 001°47'0 0.0
2015-Mar-26 23:33N 46°30' W 001°47'0 0.0
2015-Mar-26 22:33N 46°30' W 001°47'0 0.0
2015-Mar-26 21:33N 46°30' W 001°47'0 0.0
2015-Mar-26 20:33N 46°30' W 001°47'0 0.0
2015-Mar-26 19:33N 46°30' W 001°47'0 0.0
2015-Mar-26 18:33N 46°30' W 001°47'6 5.8
2015-Mar-26 17:33N 46°27' W 001°54'8 8.4
2015-Mar-26 16:33N 46°24' W 002°06'18 0.4
2015-Mar-24 23:33N 46°09' W 001°52'9 8.9
2015-Mar-24 22:33N 46°18' W 001°50'9 9.0
2015-Mar-24 21:33N 46°26' W 001°48'3 3.5
2015-Mar-24 20:33N 46°30' W 001°48'4 4.2
2015-Mar-24 19:33N 46°26' W 001°47'8 8.3
2015-Mar-24 18:33N 46°17' W 001°46'7 3.0
2015-Mar-24 16:09N 46°10' W 001°46'6 9.2
2015-Mar-24 15:31N 46°13' W 001°54'2 1.9
2015-Mar-24 14:33N 46°13' W 001°56'1 0.6
2015-Mar-24 13:23N 46°13' W 001°55'15 2.1
2015-Mar-24 06:25N 46°16' W 002°16'7 8.1
2015-Mar-24 05:33N 46°21' W 002°08'8 8.3
2015-Mar-24 04:33N 46°25' W 001°58'8 8.3
2015-Mar-24 03:34N 46°29' W 001°47'1 1.3
2015-Mar-24 02:33N 46°30' W 001°47'0 0.0
2015-Mar-24 01:33N 46°30' W 001°47'0 0.0
2015-Mar-24 00:33N 46°30' W 001°47'0 0.0
2015-Mar-23 23:33N 46°30' W 001°47'0 0.0
2015-Mar-23 22:33N 46°30' W 001°47'0 0.0
2015-Mar-23 21:33N 46°30' W 001°47'0 0.0
2015-Mar-23 20:33N 46°30' W 001°47'0 0.0
2015-Mar-23 19:33N 46°30' W 001°47'0 0.0
2015-Mar-23 18:33N 46°30' W 001°47'0 0.0
2015-Mar-23 17:33N 46°30' W 001°47'0 0.0
2015-Mar-23 16:33N 46°30' W 001°47'0 0.0
2015-Mar-23 15:33N 46°30' W 001°47'0 0.0
2015-Mar-23 14:33N 46°30' W 001°47'0 0.0
2015-Mar-23 13:33N 46°30' W 001°47'0 0.0
2015-Mar-23 12:33N 46°30' W 001°47'0 0.0
2015-Mar-23 11:33N 46°30' W 001°47'0 0.0
2015-Mar-23 10:33N 46°30' W 001°47'0 0.0
2015-Mar-23 09:33N 46°30' W 001°47'0 0.1
2015-Mar-23 08:33N 46°30' W 001°47'0 0.2
2015-Mar-23 07:33N 46°30' W 001°47'0 0.0
2015-Mar-23 06:33N 46°30' W 001°47'0 0.0
2015-Mar-23 05:33N 46°30' W 001°47'0 0.0
2015-Mar-23 04:33N 46°30' W 001°47'0 0.0
2015-Mar-23 03:33N 46°30' W 001°47'0 0.0
2015-Mar-23 02:33N 46°30' W 001°47'0 0.0
2015-Mar-23 01:33N 46°30' W 001°47'0 0.0
2015-Mar-23 00:33N 46°30' W 001°47'0 0.0
2015-Mar-22 23:33N 46°30' W 001°47'0 0.0
2015-Mar-22 22:33N 46°30' W 001°47'0 0.0
2015-Mar-22 21:33N 46°30' W 001°47'0 0.0
2015-Mar-22 20:33N 46°30' W 001°47'0 0.0
2015-Mar-22 19:33N 46°30' W 001°47'7 7.3
2015-Mar-22 18:33N 46°23' W 001°47'9 9.1
2015-Mar-22 17:33N 46°14' W 001°46'9 1.7
2015-Mar-22 12:26N 46°05' W 001°50'2 0.7
2015-Mar-22 10:11N 46°07' W 001°49'2 1.1
2015-Mar-22 08:20N 46°08' W 001°51'1 0.4
2015-Mar-22 06:32N 46°09' W 001°52'0 0.0
2015-Mar-21 22:16N 46°09' W 001°51'5 0.3
2015-Mar-21 03:09N 46°13' W 001°54'5 9.0
2015-Mar-21 02:34N 46°19' W 001°52'9 8.8
2015-Mar-21 01:34N 46°27' W 001°48'3 3.0
2015-Mar-21 00:34N 46°30' W 001°47'0 0.0
2015-Mar-20 23:34N 46°30' W 001°47'0 0.0
2015-Mar-20 22:33N 46°30' W 001°47'0 0.0
2015-Mar-20 21:34N 46°30' W 001°47'0 0.0
2015-Mar-20 20:34N 46°30' W 001°47'0 0.0
2015-Mar-20 19:33N 46°30' W 001°47'5 4.5
2015-Mar-20 18:34N 46°27' W 001°52'9 9.1
2015-Mar-20 17:33N 46°23' W 002°04'2 0.1
2015-Mar-20 02:33N 46°24' W 002°06'  

Dump ship's entire track history